createdAt,value
2018-10-05T00:00:15.873Z,47.9
2018-10-05T00:03:15.096Z,47.7
2018-10-05T00:06:15.171Z,47.9
2018-10-05T00:09:15.313Z,47.8
2018-10-05T00:12:15.433Z,48.3
2018-10-05T00:15:15.877Z,47.8
2018-10-05T00:18:14.921Z,48.4
2018-10-05T00:21:15.215Z,50.6
2018-10-05T00:24:15.645Z,48.7
2018-10-05T00:27:15.882Z,49.3
2018-10-05T00:30:15.040Z,48.3
2018-10-05T00:33:15.196Z,47.5
2018-10-05T00:36:15.465Z,47.7
2018-10-05T00:39:15.788Z,48.2
2018-10-05T00:42:15.860Z,48.0
2018-10-05T00:45:15.072Z,48.2
2018-10-05T00:48:15.224Z,47.9
2018-10-05T00:51:15.507Z,48.7
2018-10-05T00:54:15.315Z,48.3
2018-10-05T00:57:15.656Z,48.7
2018-10-05T01:00:15.670Z,50.5
2018-10-05T01:03:15.847Z,49.5
2018-10-05T01:06:15.061Z,50.3
2018-10-05T01:09:15.057Z,49.7
2018-10-05T01:12:15.045Z,49.0
2018-10-05T01:15:15.830Z,49.4
2018-10-05T01:18:15.019Z,48.4
2018-10-05T01:21:15.482Z,48.6
2018-10-05T01:24:15.536Z,48.6
2018-10-05T01:27:15.653Z,48.9
2018-10-05T01:30:15.865Z,49.7
2018-10-05T01:33:15.998Z,50.8
2018-10-05T01:36:15.209Z,48.3
2018-10-05T01:39:15.428Z,48.2
2018-10-05T01:42:15.637Z,48.9
2018-10-05T01:45:15.911Z,48.3
2018-10-05T01:48:14.939Z,48.8
2018-10-05T01:51:15.037Z,48.8
2018-10-05T01:54:15.327Z,48.4
2018-10-05T01:57:15.527Z,48.5
2018-10-05T02:00:15.739Z,48.7
2018-10-05T02:03:15.820Z,49.9
2018-10-05T02:06:15.908Z,48.2
2018-10-05T02:09:15.064Z,48.7
2018-10-05T02:12:15.134Z,49.8
2018-10-05T02:15:15.287Z,49.7
2018-10-05T02:18:15.546Z,50.2
2018-10-05T02:21:15.693Z,48.6
2018-10-05T02:24:15.952Z,49.5
2018-10-05T02:27:15.158Z,48.9
2018-10-05T02:30:15.617Z,50.3
2018-10-05T02:33:15.874Z,48.5
2018-10-05T02:36:15.871Z,49.0
2018-10-05T02:39:15.000Z,48.5
2018-10-05T02:42:14.969Z,48.1
2018-10-05T02:45:15.875Z,48.1
2018-10-05T02:48:15.989Z,49.4
2018-10-05T02:51:15.377Z,49.1
2018-10-05T02:54:15.619Z,50.7
2018-10-05T02:57:15.699Z,48.1
2018-10-05T03:00:16.018Z,48.7
2018-10-05T03:03:15.347Z,49.3
2018-10-05T03:06:15.602Z,50.1
2018-10-05T03:09:15.879Z,49.5
2018-10-05T03:12:15.199Z,49.9
2018-10-05T03:15:15.505Z,50.2
2018-10-05T03:18:15.778Z,51.2
2018-10-05T03:21:15.878Z,50.6
2018-10-05T03:24:15.113Z,50.3
2018-10-05T03:27:15.315Z,51.3
2018-10-05T03:30:15.480Z,51.3
2018-10-05T03:33:15.907Z,51.5
2018-10-05T03:36:15.066Z,50.9
2018-10-05T03:39:15.187Z,51.4
2018-10-05T03:42:15.248Z,51.3
2018-10-05T03:45:15.458Z,51.4
2018-10-05T03:48:15.578Z,51.2
2018-10-05T03:51:15.931Z,51.2
2018-10-05T03:54:15.912Z,51.0
2018-10-05T03:57:15.734Z,50.8
2018-10-05T04:00:16.018Z,51.1
2018-10-05T04:03:15.124Z,52.1
2018-10-05T04:06:15.355Z,51.2
2018-10-05T04:09:15.662Z,52.1
2018-10-05T04:12:15.754Z,51.1
2018-10-05T04:15:15.844Z,51.1
2018-10-05T04:18:15.449Z,52.6
2018-10-05T04:21:15.621Z,53.2
2018-10-05T04:24:15.809Z,52.1
2018-10-05T04:27:15.371Z,51.2
2018-10-05T04:30:15.207Z,50.7
2018-10-05T04:33:15.394Z,51.7
2018-10-05T04:36:15.635Z,50.6
2018-10-05T04:39:15.885Z,50.1
2018-10-05T04:42:15.243Z,50.8
2018-10-05T04:45:15.524Z,49.5
2018-10-05T04:48:15.686Z,50.0
2018-10-05T04:51:15.078Z,50.5
2018-10-05T04:54:15.657Z,50.8
2018-10-05T04:57:16.041Z,51.2
2018-10-05T05:00:15.644Z,49.7
2018-10-05T05:03:15.025Z,50.4
2018-10-05T05:06:15.566Z,50.3
2018-10-05T05:09:15.792Z,49.8
2018-10-05T05:12:15.182Z,50.1
2018-10-05T05:15:15.656Z,49.8
2018-10-05T05:18:15.910Z,52.2
2018-10-05T05:21:15.290Z,51.1
2018-10-05T05:24:16.051Z,50.5
2018-10-05T05:27:15.319Z,50.3
2018-10-05T05:30:15.537Z,50.2
2018-10-05T05:33:15.664Z,50.2
2018-10-05T05:36:15.334Z,50.6
2018-10-05T05:39:15.659Z,50.3
2018-10-05T05:42:15.910Z,50.7
2018-10-05T05:45:15.262Z,50.8
2018-10-05T05:48:15.603Z,50.3
2018-10-05T05:51:15.379Z,50.7
2018-10-05T05:54:15.977Z,49.6
2018-10-05T05:57:15.733Z,50.4
2018-10-05T06:00:15.026Z,49.4
2018-10-05T06:03:15.286Z,49.6
2018-10-05T06:06:15.446Z,48.8
2018-10-05T06:09:15.751Z,49.5
2018-10-05T06:12:15.165Z,48.3
2018-10-05T06:15:15.424Z,48.4
2018-10-05T06:18:15.869Z,48.6
2018-10-05T06:21:15.196Z,49.1
2018-10-05T06:24:15.167Z,48.0
2018-10-05T06:27:15.375Z,47.5
2018-10-05T06:30:15.744Z,47.4
2018-10-05T06:33:15.049Z,47.9
2018-10-05T06:36:15.533Z,48.0
2018-10-05T06:39:15.812Z,47.9
2018-10-05T06:42:16.026Z,48.3
2018-10-05T06:45:15.008Z,48.7
2018-10-05T06:48:15.342Z,48.2
2018-10-05T06:51:15.711Z,48.0
2018-10-05T06:54:15.289Z,47.8
2018-10-05T06:57:15.504Z,48.0
2018-10-05T07:00:15.763Z,47.8
2018-10-05T07:03:15.873Z,48.5
2018-10-05T07:06:15.081Z,48.4
2018-10-05T07:09:15.129Z,47.6
2018-10-05T07:12:15.620Z,47.6
2018-10-05T07:15:15.729Z,46.9
2018-10-05T07:18:15.078Z,48.0
2018-10-05T07:21:15.388Z,47.1
2018-10-05T07:24:15.369Z,46.8
2018-10-05T07:27:15.460Z,47.3
2018-10-05T07:30:15.695Z,47.1
2018-10-05T07:33:15.120Z,47.0
2018-10-05T07:36:15.541Z,47.2
2018-10-05T07:39:15.814Z,47.4
2018-10-05T07:42:15.177Z,46.5
2018-10-05T07:45:15.472Z,46.4
2018-10-05T07:48:15.687Z,46.2
2018-10-05T07:51:15.008Z,46.3
2018-10-05T07:54:15.287Z,46.0
2018-10-05T07:57:15.683Z,45.5
2018-10-05T08:00:15.457Z,44.0
2018-10-05T08:03:15.700Z,43.5
2018-10-05T08:06:15.310Z,42.9
2018-10-05T08:09:15.403Z,41.5
2018-10-05T08:12:15.871Z,38.6
2018-10-05T08:15:15.024Z,34.8
2018-10-05T08:18:15.408Z,33.1
2018-10-05T08:21:15.606Z,32.6
2018-10-05T08:24:15.458Z,30.0
2018-10-05T08:27:15.831Z,29.1
2018-10-05T08:30:15.641Z,29.4
2018-10-05T08:33:14.901Z,28.4
2018-10-05T08:36:15.199Z,28.5
2018-10-05T08:39:15.508Z,28.7
2018-10-05T08:42:15.855Z,27.0
2018-10-05T08:45:15.093Z,26.4
2018-10-05T08:48:15.521Z,25.8
2018-10-05T08:51:15.909Z,25.6
2018-10-05T08:54:15.395Z,25.6
2018-10-05T08:57:15.600Z,25.7
2018-10-05T09:00:15.885Z,25.0
2018-10-05T09:03:15.587Z,24.8
2018-10-05T09:06:15.823Z,24.9
2018-10-05T09:09:15.219Z,23.6
2018-10-05T09:12:15.504Z,23.7
2018-10-05T09:15:15.575Z,23.2
2018-10-05T09:18:15.948Z,22.8
2018-10-05T09:21:15.249Z,22.7
2018-10-05T09:24:15.738Z,22.2
2018-10-05T09:27:15.192Z,20.8
2018-10-05T09:30:15.493Z,20.7
2018-10-05T09:33:15.812Z,20.9
2018-10-05T09:36:15.129Z,21.2
2018-10-05T09:39:15.201Z,20.4
2018-10-05T09:42:15.522Z,20.0
2018-10-05T09:45:15.808Z,20.5
2018-10-05T09:48:15.956Z,20.9
2018-10-05T09:51:15.361Z,20.6
2018-10-05T09:54:15.748Z,19.9
2018-10-05T09:57:14.995Z,19.1
2018-10-05T10:00:15.340Z,18.4
2018-10-05T10:03:15.475Z,18.7
2018-10-05T10:06:15.888Z,19.7
2018-10-05T10:09:15.258Z,19.8
2018-10-05T10:12:15.530Z,18.8
2018-10-05T10:15:15.647Z,19.6
2018-10-05T10:18:15.267Z,19.5
2018-10-05T10:21:15.464Z,19.5
2018-10-05T10:24:15.810Z,19.4
2018-10-05T10:27:15.189Z,19.2
2018-10-05T10:30:15.412Z,18.7
2018-10-05T10:33:15.608Z,17.9
2018-10-05T10:36:15.071Z,18.4
2018-10-05T10:39:15.357Z,18.9
2018-10-05T10:42:15.577Z,19.8
2018-10-05T10:45:15.172Z,19.6
2018-10-05T10:48:15.485Z,18.9
2018-10-05T10:51:15.736Z,18.6
2018-10-05T10:54:15.979Z,19.2
2018-10-05T10:57:15.531Z,20.1
2018-10-05T11:00:15.112Z,20.7
2018-10-05T11:03:15.591Z,20.7
2018-10-05T11:06:15.925Z,21.4
2018-10-05T11:09:15.167Z,21.5
2018-10-05T11:12:15.596Z,21.8
2018-10-05T11:15:15.917Z,22.0
2018-10-05T11:18:15.255Z,22.2
2018-10-05T11:21:15.430Z,22.5
2018-10-05T11:24:15.759Z,22.6
2018-10-05T11:27:15.083Z,22.5
2018-10-05T11:30:15.388Z,22.6
2018-10-05T11:33:15.607Z,23.4
2018-10-05T11:36:15.895Z,24.0
2018-10-05T11:39:15.151Z,24.5
2018-10-05T11:42:20.650Z,25.1
2018-10-05T11:45:16.106Z,25.9
2018-10-05T11:48:15.285Z,26.5
2018-10-05T11:51:15.554Z,26.3
2018-10-05T11:54:15.773Z,27.2
2018-10-05T11:57:15.111Z,27.3
2018-10-05T12:00:15.238Z,27.6
2018-10-05T12:03:15.622Z,27.5
2018-10-05T12:06:15.996Z,27.7
2018-10-05T12:09:15.451Z,27.7
2018-10-05T12:12:15.917Z,27.7
2018-10-05T12:15:15.304Z,28.1
2018-10-05T12:18:15.514Z,28.1
2018-10-05T12:21:15.859Z,28.1
2018-10-05T12:24:15.198Z,28.4
2018-10-05T12:27:15.612Z,28.6
2018-10-05T12:30:15.974Z,28.8
2018-10-05T12:33:15.453Z,28.4
2018-10-05T12:36:15.590Z,28.4
2018-10-05T12:39:15.718Z,28.8
2018-10-05T12:42:15.234Z,28.8
2018-10-05T12:45:15.549Z,28.5
2018-10-05T12:48:15.665Z,28.6
2018-10-05T12:51:16.053Z,28.8
2018-10-05T12:54:15.343Z,29.2
2018-10-05T12:57:15.970Z,29.3
2018-10-05T13:00:15.320Z,29.5
2018-10-05T13:03:15.457Z,29.3
2018-10-05T13:06:15.869Z,29.2
2018-10-05T13:09:15.094Z,29.5
2018-10-05T13:12:15.302Z,29.7
2018-10-05T13:15:15.506Z,30.0
2018-10-05T13:18:15.904Z,29.7
2018-10-05T13:21:15.306Z,29.7
2018-10-05T13:24:15.700Z,29.6
2018-10-05T13:27:15.193Z,29.6
2018-10-05T13:30:15.635Z,29.9
2018-10-05T13:33:15.712Z,30.1
2018-10-05T13:36:15.918Z,30.0
2018-10-05T13:39:15.245Z,30.4
2018-10-05T13:42:15.539Z,30.5
2018-10-05T13:45:15.972Z,30.3
2018-10-05T13:48:15.291Z,30.7
2018-10-05T13:51:15.855Z,30.8
2018-10-05T13:54:15.162Z,30.4
2018-10-05T13:57:15.601Z,30.3
2018-10-05T14:00:15.937Z,30.8
2018-10-05T14:03:15.060Z,31.0
2018-10-05T14:06:15.340Z,31.2
2018-10-05T14:09:15.678Z,31.1
2018-10-05T14:12:15.991Z,30.9
2018-10-05T14:15:15.144Z,31.0
2018-10-05T14:18:15.703Z,31.0
2018-10-05T14:21:15.894Z,31.0
2018-10-05T14:24:15.211Z,31.0
2018-10-05T14:27:15.595Z,31.1
2018-10-05T14:30:15.902Z,31.2
2018-10-05T14:33:15.273Z,31.4
2018-10-05T14:36:15.543Z,31.4
2018-10-05T14:39:15.750Z,31.5
2018-10-05T14:42:15.873Z,31.1
2018-10-05T14:45:15.159Z,31.3
2018-10-05T14:48:15.448Z,32.1
2018-10-05T14:51:15.814Z,31.7
2018-10-05T14:54:15.874Z,31.7
2018-10-05T14:57:15.197Z,32.0
2018-10-05T15:00:15.957Z,31.7
2018-10-05T15:03:15.465Z,31.8
2018-10-05T15:06:15.599Z,31.9
2018-10-05T15:09:15.907Z,32.6
2018-10-05T15:12:15.247Z,32.3
2018-10-05T15:15:15.566Z,32.3
2018-10-05T15:18:15.911Z,32.2
2018-10-05T15:21:15.341Z,32.4
2018-10-05T15:24:15.293Z,32.6
2018-10-05T15:27:15.699Z,32.9
2018-10-05T15:30:15.043Z,33.0
2018-10-05T15:33:15.329Z,32.9
2018-10-05T15:36:15.724Z,33.1
2018-10-05T15:39:14.989Z,33.0
2018-10-05T15:42:15.034Z,33.3
2018-10-05T15:45:15.420Z,33.7
2018-10-05T15:48:15.892Z,33.5
2018-10-05T15:51:15.296Z,33.9
2018-10-05T15:54:15.664Z,33.9
2018-10-05T15:57:15.225Z,33.9
2018-10-05T16:00:15.648Z,34.3
2018-10-05T16:03:16.060Z,34.5
2018-10-05T16:06:15.909Z,34.5
2018-10-05T16:09:17.075Z,34.7
2018-10-05T16:12:24.669Z,34.6
2018-10-05T16:15:15.683Z,34.9
2018-10-05T16:18:15.761Z,35.0
2018-10-05T16:24:15.360Z,35.5
2018-10-05T16:27:15.279Z,35.3
2018-10-05T16:31:17.481Z,36.0
2018-10-05T16:33:15.906Z,35.5
2018-10-05T16:36:31.178Z,35.6
2018-10-05T16:39:15.284Z,35.6
2018-10-05T16:42:46.682Z,36.0
2018-10-05T16:45:15.482Z,35.7
2018-10-05T16:48:31.158Z,35.7
2018-10-05T16:51:14.940Z,35.8
2018-10-05T16:54:15.800Z,35.7
2018-10-05T16:57:15.344Z,35.7
2018-10-05T17:00:16.983Z,35.9
2018-10-05T17:03:18.608Z,36.0
2018-10-05T17:06:15.963Z,36.4
2018-10-05T17:09:15.230Z,37.0
2018-10-05T17:12:15.010Z,37.1
2018-10-05T17:15:15.430Z,37.4
2018-10-05T17:18:15.951Z,37.4
2018-10-05T17:21:15.303Z,37.4
2018-10-05T17:24:15.908Z,37.8
2018-10-05T17:27:15.818Z,37.9
2018-10-05T17:30:16.009Z,38.2
2018-10-05T17:33:16.048Z,38.3
2018-10-05T17:36:15.115Z,38.5
2018-10-05T17:39:15.399Z,38.7
2018-10-05T17:42:19.366Z,38.5
2018-10-05T17:45:15.403Z,39.0
2018-10-05T17:48:15.059Z,38.8
2018-10-05T17:51:18.812Z,38.7
2018-10-05T17:54:15.615Z,38.5
2018-10-05T17:57:15.735Z,39.3
2018-10-05T18:00:15.848Z,38.9
2018-10-05T18:03:15.710Z,39.7
2018-10-05T18:06:16.990Z,38.9
2018-10-05T18:09:15.443Z,39.9
2018-10-05T18:12:15.433Z,39.5
2018-10-05T18:15:15.866Z,39.8
2018-10-05T18:18:15.737Z,39.3
2018-10-05T18:21:23.929Z,39.9
2018-10-05T18:24:15.970Z,40.0
2018-10-05T18:27:15.948Z,39.4
2018-10-05T18:30:15.847Z,40.4
2018-10-05T18:33:16.067Z,40.6
2018-10-05T18:36:15.155Z,40.3
2018-10-05T18:39:15.215Z,40.6
2018-10-05T18:42:15.197Z,40.8
2018-10-05T18:45:15.120Z,40.4
2018-10-05T18:48:15.335Z,41.1
2018-10-05T18:51:15.610Z,40.9
2018-10-05T18:54:15.134Z,40.4
2018-10-05T18:57:15.347Z,41.3
2018-10-05T19:00:15.706Z,40.9
2018-10-05T19:03:15.228Z,42.1
2018-10-05T19:06:15.483Z,41.8
2018-10-05T19:09:15.753Z,41.6
2018-10-05T19:12:15.206Z,41.7
2018-10-05T19:15:15.575Z,41.7
2018-10-05T19:18:15.091Z,42.8
2018-10-05T19:21:15.557Z,41.9
2018-10-05T19:24:15.775Z,42.4
2018-10-05T19:27:15.113Z,42.3
2018-10-05T19:30:15.428Z,42.6
2018-10-05T19:33:15.148Z,42.8
2018-10-05T19:36:15.445Z,43.6
2018-10-05T19:39:15.160Z,42.4
2018-10-05T19:42:15.313Z,42.4
2018-10-05T19:45:15.863Z,42.9
2018-10-05T19:48:15.093Z,42.9
2018-10-05T19:51:15.294Z,42.9
2018-10-05T19:54:15.447Z,42.9
2018-10-05T19:57:15.912Z,43.2
2018-10-05T20:00:15.184Z,42.8
2018-10-05T20:03:15.744Z,43.2
2018-10-05T20:06:16.045Z,43.8
2018-10-05T20:09:15.516Z,43.5
2018-10-05T20:12:15.815Z,44.1
2018-10-05T20:15:15.193Z,43.4
2018-10-05T20:18:15.938Z,43.5
2018-10-05T20:21:15.465Z,44.0
2018-10-05T20:24:15.696Z,44.4
2018-10-05T20:27:15.487Z,44.4
2018-10-05T20:30:15.830Z,44.6
2018-10-05T20:33:15.015Z,45.9
2018-10-05T20:36:15.698Z,44.5
2018-10-05T20:39:15.559Z,46.4
2018-10-05T20:42:15.573Z,45.3
2018-10-05T20:45:15.913Z,45.2
2018-10-05T20:48:15.121Z,45.2
2018-10-05T20:51:15.572Z,45.0
2018-10-05T20:54:15.798Z,44.9
2018-10-05T20:57:15.934Z,45.5
2018-10-05T21:00:16.004Z,45.6
2018-10-05T21:03:15.556Z,45.4
2018-10-05T21:06:15.747Z,45.4
2018-10-05T21:09:15.101Z,45.5
2018-10-05T21:12:15.465Z,44.9
2018-10-05T21:15:15.766Z,45.1
2018-10-05T21:18:15.196Z,45.3
2018-10-05T21:21:15.397Z,45.4
2018-10-05T21:24:15.514Z,46.0
2018-10-05T21:27:15.836Z,45.1
2018-10-05T21:30:15.115Z,45.7
2018-10-05T21:33:15.449Z,46.0
2018-10-05T21:36:15.870Z,45.7
2018-10-05T21:39:15.134Z,46.5
2018-10-05T21:42:15.399Z,45.7
2018-10-05T21:45:15.449Z,45.4
2018-10-05T21:48:15.519Z,45.8
2018-10-05T21:51:15.899Z,46.5
2018-10-05T21:54:15.567Z,46.1
2018-10-05T21:57:15.818Z,45.7
2018-10-05T22:00:14.971Z,46.7
2018-10-05T22:03:15.263Z,45.9
2018-10-05T22:06:15.433Z,45.9
2018-10-05T22:09:15.721Z,46.1
2018-10-05T22:12:15.635Z,46.9
2018-10-05T22:15:15.930Z,46.2
2018-10-05T22:18:15.250Z,46.0
2018-10-05T22:21:15.510Z,46.2
2018-10-05T22:24:15.949Z,46.6
2018-10-05T22:27:16.001Z,46.3
2018-10-05T22:30:14.977Z,46.9
2018-10-05T22:33:15.191Z,46.4
2018-10-05T22:36:15.396Z,46.2
2018-10-05T22:39:15.760Z,46.7
2018-10-05T22:42:15.141Z,47.1
2018-10-05T22:45:15.252Z,47.2
2018-10-05T22:48:15.585Z,47.5
2018-10-05T22:51:15.841Z,47.0
2018-10-05T22:54:15.328Z,47.9
2018-10-05T22:57:15.561Z,47.2
2018-10-05T23:00:15.517Z,47.2
2018-10-05T23:03:15.734Z,47.9
2018-10-05T23:06:15.785Z,47.7
2018-10-05T23:09:15.892Z,48.6
2018-10-05T23:12:15.969Z,48.0
2018-10-05T23:15:15.070Z,47.9
2018-10-05T23:18:15.296Z,47.9
2018-10-05T23:21:15.382Z,48.0
2018-10-05T23:24:15.330Z,48.2
2018-10-05T23:27:15.505Z,48.7
2018-10-05T23:30:15.886Z,49.0
2018-10-05T23:33:14.901Z,48.4
2018-10-05T23:36:15.045Z,48.1
2018-10-05T23:39:15.173Z,48.0
2018-10-05T23:42:15.163Z,49.1
2018-10-05T23:45:15.247Z,48.4
2018-10-05T23:48:15.492Z,48.2
2018-10-05T23:51:15.597Z,48.7
2018-10-05T23:54:15.537Z,48.7
2018-10-05T23:57:15.648Z,48.3
